createdAt,value
2018-12-10T00:01:31.515Z,1.83
2018-12-10T00:03:36.622Z,1.90
2018-12-10T00:05:40.702Z,1.57
2018-12-10T00:07:43.946Z,2.05
2018-12-10T00:09:47.482Z,1.90
2018-12-10T00:11:51.182Z,2.35
2018-12-10T00:13:55.137Z,1.50
2018-12-10T00:15:58.785Z,2.23
2018-12-10T00:18:02.549Z,1.77
2018-12-10T00:20:06.925Z,2.27
2018-12-10T00:22:10.393Z,1.90
2018-12-10T00:24:14.256Z,2.10
2018-12-10T00:26:17.830Z,2.10
2018-12-10T00:28:21.325Z,2.65
2018-12-10T00:30:25.477Z,2.33
2018-12-10T00:32:28.972Z,2.60
2018-12-10T00:34:32.462Z,2.25
2018-12-10T00:36:36.394Z,1.55
2018-12-10T00:38:39.958Z,1.82
2018-12-10T00:40:43.219Z,2.20
2018-12-10T00:42:46.723Z,1.93
2018-12-10T00:44:50.508Z,2.98
2018-12-10T00:46:53.798Z,2.30
2018-12-10T00:48:57.267Z,2.40
2018-12-10T00:51:01.177Z,2.83
2018-12-10T00:53:04.660Z,2.65
2018-12-10T00:55:08.878Z,2.70
2018-12-10T00:57:12.377Z,2.10
2018-12-10T00:59:16.350Z,1.50
2018-12-10T01:01:19.922Z,2.37
2018-12-10T01:03:23.907Z,2.50
2018-12-10T01:05:27.443Z,2.80
2018-12-10T01:07:31.366Z,2.02
2018-12-10T01:09:34.611Z,1.90
2018-12-10T01:11:38.152Z,2.60
2018-12-10T01:13:41.643Z,2.22
2018-12-10T01:15:45.642Z,2.10
2018-12-10T01:17:49.548Z,1.90
2018-12-10T01:19:53.046Z,2.10
2018-12-10T01:21:56.562Z,1.50
2018-12-10T01:24:00.093Z,1.77
2018-12-10T01:26:03.403Z,1.93
2018-12-10T01:28:06.897Z,1.50
2018-12-10T01:30:10.438Z,1.90
2018-12-10T01:32:13.967Z,1.85
2018-12-10T01:34:17.486Z,2.30
2018-12-10T01:36:20.994Z,1.40
2018-12-10T01:38:24.471Z,1.70
2018-12-10T01:40:27.740Z,2.25
2018-12-10T01:42:31.260Z,1.82
2018-12-10T01:44:34.780Z,2.20
2018-12-10T01:46:37.987Z,1.97
2018-12-10T01:48:41.751Z,1.80
2018-12-10T01:50:45.691Z,2.10
2018-12-10T01:52:49.178Z,2.80
2018-12-10T01:54:52.703Z,2.40
2018-12-10T01:56:56.270Z,1.92
2018-12-10T01:58:59.781Z,1.92
2018-12-10T02:01:03.425Z,1.90
2018-12-10T02:03:06.920Z,1.92
2018-12-10T02:05:10.493Z,1.80
2018-12-10T02:07:13.698Z,2.30
2018-12-10T02:09:17.538Z,2.12
2018-12-10T02:11:20.758Z,1.90
2018-12-10T02:13:24.372Z,2.10
2018-12-10T02:15:28.110Z,2.10
2018-12-10T02:17:31.674Z,2.98
2018-12-10T02:19:35.599Z,2.30
2018-12-10T02:21:39.219Z,2.15
2018-12-10T02:23:42.740Z,2.05
2018-12-10T02:25:45.985Z,1.92
2018-12-10T02:27:49.270Z,2.40
2018-12-10T02:29:52.979Z,1.90
2018-12-10T02:31:56.235Z,2.40
2018-12-10T02:33:59.470Z,2.20
2018-12-10T02:36:02.998Z,1.55
2018-12-10T02:38:06.551Z,1.40
2018-12-10T02:40:10.515Z,1.45
2018-12-10T02:42:14.003Z,1.40
2018-12-10T02:44:18.064Z,1.52
2018-12-10T02:46:21.523Z,1.20
2018-12-10T02:48:24.811Z,1.70
2018-12-10T02:50:28.495Z,1.70
2018-12-10T02:52:31.992Z,1.40
2018-12-10T02:54:35.549Z,1.50
2018-12-10T02:56:39.050Z,1.50
2018-12-10T02:58:42.812Z,1.90
2018-12-10T03:00:46.318Z,2.20
2018-12-10T03:02:50.343Z,1.75
2018-12-10T03:04:53.835Z,1.60
2018-12-10T03:06:57.614Z,1.45
2018-12-10T03:09:01.134Z,2.00
2018-12-10T03:11:04.790Z,1.60
2018-12-10T03:13:08.331Z,2.08
2018-12-10T03:15:11.942Z,1.75
2018-12-10T03:17:15.506Z,1.60
2018-12-10T03:19:18.731Z,1.98
2018-12-10T03:21:22.392Z,1.90
2018-12-10T03:23:26.016Z,1.40
2018-12-10T03:25:29.518Z,2.10
2018-12-10T03:27:33.494Z,1.65
2018-12-10T03:29:37.011Z,1.60
2018-12-10T03:31:40.228Z,1.90
2018-12-10T03:33:44.460Z,1.90
2018-12-10T03:35:48.000Z,1.40
2018-12-10T03:37:51.732Z,1.80
2018-12-10T03:39:55.214Z,1.85
2018-12-10T03:41:58.429Z,1.80
2018-12-10T03:44:02.323Z,1.82
2018-12-10T03:46:05.557Z,2.30
2018-12-10T03:48:09.357Z,1.70
2018-12-10T03:50:19.412Z,1.72
2018-12-10T03:52:23.203Z,2.27
2018-12-10T03:54:27.026Z,1.90
2018-12-10T03:56:30.530Z,1.72
2018-12-10T03:58:34.200Z,1.85
2018-12-10T04:00:38.032Z,1.67
2018-12-10T04:02:41.575Z,1.75
2018-12-10T04:04:45.050Z,1.50
2018-12-10T04:06:48.674Z,1.62
2018-12-10T04:08:52.814Z,1.95
2018-12-10T04:10:56.042Z,1.80
2018-12-10T04:12:59.773Z,1.60
2018-12-10T04:15:03.659Z,1.80
2018-12-10T04:17:07.391Z,1.55
2018-12-10T04:19:11.069Z,1.90
2018-12-10T04:21:14.950Z,1.65
2018-12-10T04:23:18.430Z,1.80
2018-12-10T04:25:22.224Z,2.00
2018-12-10T04:27:25.803Z,2.12
2018-12-10T04:29:29.552Z,1.90
2018-12-10T04:31:33.418Z,1.98
2018-12-10T04:33:36.912Z,2.35
2018-12-10T04:35:40.726Z,1.72
2018-12-10T04:37:44.426Z,1.90
2018-12-10T04:39:47.937Z,2.27
2018-12-10T04:41:51.814Z,2.37
2018-12-10T04:43:55.545Z,1.45
2018-12-10T04:45:59.037Z,2.45
2018-12-10T04:48:02.522Z,1.90
2018-12-10T04:50:06.718Z,2.45
2018-12-10T04:52:09.935Z,1.70
2018-12-10T04:54:13.446Z,2.15
2018-12-10T04:56:17.303Z,2.65
2018-12-10T04:58:21.035Z,2.15
2018-12-10T05:00:24.766Z,2.63
2018-12-10T05:02:28.639Z,2.27
2018-12-10T05:04:32.915Z,2.80
2018-12-10T05:06:36.450Z,2.35
2018-12-10T05:08:39.965Z,2.25
2018-12-10T05:10:43.446Z,2.37
2018-12-10T05:12:47.269Z,2.00
2018-12-10T05:14:51.018Z,2.50
2018-12-10T05:16:54.550Z,2.80
2018-12-10T05:18:57.915Z,2.75
2018-12-10T05:21:01.166Z,2.70
2018-12-10T05:23:05.482Z,2.37
2018-12-10T05:25:08.963Z,2.90
2018-12-10T05:27:12.196Z,2.70
2018-12-10T05:29:15.448Z,1.70
2018-12-10T05:31:19.288Z,2.10
2018-12-10T05:33:22.979Z,1.70
2018-12-10T05:35:26.967Z,2.10
2018-12-10T05:37:30.565Z,2.37
2018-12-10T05:39:34.346Z,1.72
2018-12-10T05:41:38.329Z,2.25
2018-12-10T05:43:41.873Z,3.22
2018-12-10T05:45:45.123Z,2.80
2018-12-10T05:47:48.629Z,2.30
2018-12-10T05:49:52.197Z,2.80
2018-12-10T05:51:55.690Z,3.00
2018-12-10T05:53:59.252Z,2.60
2018-12-10T05:56:02.654Z,2.60
2018-12-10T05:58:06.382Z,2.27
2018-12-10T06:00:10.270Z,2.40
2018-12-10T06:02:14.350Z,2.40
2018-12-10T06:04:17.831Z,2.63
2018-12-10T06:06:21.363Z,2.52
2018-12-10T06:08:25.758Z,2.85
2018-12-10T06:10:29.011Z,2.43
2018-12-10T06:12:32.619Z,2.20
2018-12-10T06:14:36.931Z,2.70
2018-12-10T06:16:41.206Z,2.65
2018-12-10T06:18:45.190Z,2.60
2018-12-10T06:20:48.540Z,2.27
2018-12-10T06:22:52.025Z,2.85
2018-12-10T06:24:56.152Z,3.40
2018-12-10T06:27:00.187Z,2.45
2018-12-10T06:29:04.258Z,2.58
2018-12-10T06:31:08.220Z,2.60
2018-12-10T06:33:11.777Z,2.70
2018-12-10T06:35:15.493Z,2.37
2018-12-10T06:37:19.033Z,1.98
2018-12-10T06:39:22.982Z,2.25
2018-12-10T06:41:26.258Z,2.70
2018-12-10T06:43:29.782Z,1.80
2018-12-10T06:45:33.423Z,2.10
2018-12-10T06:47:36.972Z,1.62
2018-12-10T06:49:40.495Z,1.85
2018-12-10T06:51:44.237Z,2.30
2018-12-10T06:53:47.828Z,1.77
2018-12-10T06:55:51.678Z,1.60
2018-12-10T06:57:54.962Z,1.70
2018-12-10T06:59:58.470Z,3.00
2018-12-10T07:02:02.131Z,1.80
2018-12-10T07:04:05.748Z,2.47
2018-12-10T07:06:09.573Z,2.10
2018-12-10T07:08:13.288Z,2.33
2018-12-10T07:10:17.336Z,2.30
2018-12-10T07:12:20.872Z,2.60
2018-12-10T07:14:24.364Z,2.60
2018-12-10T07:16:27.594Z,1.67
2018-12-10T07:18:33.215Z,2.63
2018-12-10T07:20:36.857Z,2.20
2018-12-10T07:22:40.733Z,2.30
2018-12-10T07:24:43.990Z,2.15
2018-12-10T07:26:47.620Z,2.00
2018-12-10T07:28:51.622Z,1.60
2018-12-10T07:30:55.194Z,2.58
2018-12-10T07:32:58.407Z,2.77
2018-12-10T07:35:02.314Z,3.20
2018-12-10T07:37:06.120Z,2.30
2018-12-10T07:39:09.615Z,1.82
2018-12-10T07:41:13.347Z,2.80
2018-12-10T07:43:17.251Z,2.65
2018-12-10T07:45:20.791Z,2.20
2018-12-10T07:47:24.125Z,2.57
2018-12-10T07:49:27.670Z,2.50
2018-12-10T07:51:31.669Z,2.30
2018-12-10T07:53:35.496Z,2.70
2018-12-10T07:55:39.422Z,3.40
2018-12-10T07:57:42.942Z,2.00
2018-12-10T07:59:46.447Z,2.45
2018-12-10T08:01:49.672Z,2.10
2018-12-10T08:03:53.218Z,2.17
2018-12-10T08:05:56.832Z,1.62
2018-12-10T08:08:00.366Z,1.52
2018-12-10T08:10:05.577Z,2.00
2018-12-10T08:12:09.551Z,2.00
2018-12-10T08:14:13.033Z,2.05
2018-12-10T08:16:16.542Z,2.17
2018-12-10T08:18:20.652Z,2.08
2018-12-10T08:20:24.253Z,2.37
2018-12-10T08:22:28.216Z,2.10
2018-12-10T08:24:32.922Z,2.75
2018-12-10T08:26:36.490Z,2.80
2018-12-10T08:28:39.846Z,3.20
2018-12-10T08:30:44.237Z,2.58
2018-12-10T08:32:47.745Z,2.62
2018-12-10T08:34:51.658Z,2.70
2018-12-10T08:36:55.719Z,2.70
2018-12-10T08:38:59.612Z,2.83
2018-12-10T08:41:03.110Z,3.08
2018-12-10T08:43:06.809Z,2.30
2018-12-10T08:45:11.413Z,2.30
2018-12-10T08:47:16.226Z,2.15
2018-12-10T08:49:20.318Z,2.33
2018-12-10T08:51:23.578Z,2.33
2018-12-10T08:53:27.104Z,2.33
2018-12-10T08:55:30.645Z,2.85
2018-12-10T08:57:34.299Z,2.50
2018-12-10T08:59:38.418Z,2.80
2018-12-10T09:01:42.119Z,3.70
2018-12-10T09:03:45.620Z,3.10
2018-12-10T09:05:49.174Z,2.85
2018-12-10T09:07:52.710Z,2.58
2018-12-10T09:09:56.222Z,2.87
2018-12-10T09:11:59.490Z,2.40
2018-12-10T09:14:03.850Z,2.83
2018-12-10T09:16:07.339Z,1.72
2018-12-10T09:18:10.625Z,2.50
2018-12-10T09:20:14.431Z,2.35
2018-12-10T09:22:18.019Z,2.08
2018-12-10T09:24:21.586Z,1.60
2018-12-10T09:26:25.723Z,2.67
2018-12-10T09:28:29.286Z,2.08
2018-12-10T09:30:33.283Z,1.75
2018-12-10T09:32:36.780Z,2.17
2018-12-10T09:34:40.914Z,1.80
2018-12-10T09:36:44.872Z,1.70
2018-12-10T09:38:48.363Z,1.80
2018-12-10T09:40:51.591Z,1.75
2018-12-10T09:42:54.860Z,1.30
2018-12-10T09:44:58.447Z,1.25
2018-12-10T09:47:02.384Z,1.55
2018-12-10T09:49:05.898Z,1.80
2018-12-10T09:51:09.704Z,2.05
2018-12-10T09:53:13.817Z,2.00
2018-12-10T09:55:17.011Z,2.10
2018-12-10T09:57:20.250Z,1.60
2018-12-10T09:59:23.644Z,2.37
2018-12-10T10:01:28.033Z,1.80
2018-12-10T10:03:31.924Z,2.20
2018-12-10T10:05:35.434Z,1.90
2018-12-10T10:07:38.642Z,2.80
2018-12-10T10:09:42.271Z,1.67
2018-12-10T10:11:46.274Z,2.15
2018-12-10T10:13:49.788Z,1.80
2018-12-10T10:15:53.037Z,1.98
2018-12-10T10:17:56.323Z,2.30
2018-12-10T10:19:59.842Z,2.50
2018-12-10T10:22:03.441Z,2.00
2018-12-10T10:24:07.811Z,1.60
2018-12-10T10:26:11.680Z,2.47
2018-12-10T10:28:15.211Z,2.30
2018-12-10T10:30:19.374Z,1.90
2018-12-10T10:32:23.350Z,1.50
2018-12-10T10:34:26.850Z,2.30
2018-12-10T10:36:30.826Z,1.87
2018-12-10T10:38:34.086Z,2.20
2018-12-10T10:40:37.363Z,2.00
2018-12-10T10:42:41.455Z,2.10
2018-12-10T10:44:45.221Z,2.35
2018-12-10T10:46:48.993Z,1.70
2018-12-10T10:48:52.764Z,2.20
2018-12-10T10:50:56.667Z,2.10
2018-12-10T10:53:00.217Z,2.02
2018-12-10T10:55:04.915Z,2.42
2018-12-10T10:57:08.416Z,1.50
2018-12-10T10:59:12.083Z,1.40
2018-12-10T11:01:21.375Z,1.05
2018-12-10T11:03:30.226Z,1.30
2018-12-10T11:05:34.071Z,1.30
2018-12-10T11:07:37.632Z,1.77
2018-12-10T11:09:41.218Z,1.67
2018-12-10T11:11:45.642Z,1.80
2018-12-10T11:13:49.534Z,1.60
2018-12-10T11:15:53.080Z,1.60
2018-12-10T11:17:56.395Z,1.90
2018-12-10T11:19:59.710Z,1.20
2018-12-10T11:22:03.226Z,1.70
2018-12-10T11:24:06.498Z,1.52
2018-12-10T11:26:09.768Z,2.20
2018-12-10T11:28:13.800Z,1.50
2018-12-10T11:30:17.340Z,1.70
2018-12-10T11:32:20.886Z,1.77
2018-12-10T11:34:24.806Z,1.70
2018-12-10T11:36:28.334Z,1.40
2018-12-10T11:38:31.882Z,1.47
2018-12-10T11:40:35.432Z,1.62
2018-12-10T11:42:38.948Z,1.30
2018-12-10T11:44:42.524Z,1.10
2018-12-10T11:46:46.046Z,1.07
2018-12-10T11:48:49.520Z,1.22
2018-12-10T11:50:52.762Z,1.20
2018-12-10T11:52:56.691Z,1.10
2018-12-10T11:55:00.554Z,1.30
2018-12-10T11:57:04.751Z,1.20
2018-12-10T11:59:07.950Z,1.00
2018-12-10T12:01:11.766Z,1.65
2018-12-10T12:03:15.978Z,1.90
2018-12-10T12:05:19.599Z,1.13
2018-12-10T12:07:23.082Z,1.30
2018-12-10T12:09:27.678Z,1.40
2018-12-10T12:11:31.606Z,1.50
2018-12-10T12:13:35.523Z,1.57
2018-12-10T12:15:39.310Z,1.50
2018-12-10T12:17:42.812Z,1.20
2018-12-10T12:19:46.728Z,1.20
2018-12-10T12:21:50.622Z,1.30
2018-12-10T12:23:54.168Z,1.72
2018-12-10T12:25:57.718Z,1.50
2018-12-10T12:28:01.264Z,1.45
2018-12-10T12:30:06.430Z,1.75
2018-12-10T12:32:09.939Z,1.35
2018-12-10T12:34:13.729Z,1.30
2018-12-10T12:36:17.705Z,1.80
2018-12-10T12:38:21.653Z,1.30
2018-12-10T12:40:24.950Z,1.75
2018-12-10T12:42:28.693Z,1.40
2018-12-10T12:44:32.219Z,1.70
2018-12-10T12:46:36.143Z,1.20
2018-12-10T12:48:39.364Z,2.00
2018-12-10T12:50:43.194Z,1.67
2018-12-10T12:52:46.723Z,1.45
2018-12-10T12:54:50.243Z,1.40
2018-12-10T12:56:53.447Z,1.40
2018-12-10T12:58:56.745Z,1.70
2018-12-10T13:01:00.235Z,2.00
2018-12-10T13:03:03.840Z,1.22
2018-12-10T13:05:08.230Z,1.57
2018-12-10T13:07:11.802Z,1.30
2018-12-10T13:09:21.774Z,1.20
2018-12-10T13:11:21.094Z,1.00
2018-12-10T13:13:24.686Z,1.02
2018-12-10T13:15:28.636Z,1.15
2018-12-10T13:17:32.150Z,1.40
2018-12-10T13:19:35.390Z,1.00
2018-12-10T13:21:39.176Z,1.07
2018-12-10T13:23:42.518Z,1.50
2018-12-10T13:25:46.130Z,1.42
2018-12-10T13:27:49.364Z,1.50
2018-12-10T13:29:53.276Z,1.30
2018-12-10T13:31:57.054Z,1.20
2018-12-10T13:34:00.507Z,1.00
2018-12-10T13:36:06.820Z,1.10
2018-12-10T13:38:12.581Z,1.45
2018-12-10T13:40:15.906Z,1.60
2018-12-10T13:42:19.600Z,1.60
2018-12-10T13:44:22.911Z,1.40
2018-12-10T13:46:27.428Z,1.72
2018-12-10T13:48:31.738Z,1.50
2018-12-10T13:50:34.976Z,1.50
2018-12-10T13:52:38.510Z,1.82
2018-12-10T13:54:42.650Z,1.32
2018-12-10T13:56:46.127Z,1.50
2018-12-10T13:58:49.610Z,1.60
2018-12-10T14:00:53.118Z,1.50
2018-12-10T14:02:58.336Z,1.70
2018-12-10T14:05:06.470Z,1.50
2018-12-10T14:07:10.079Z,1.75
2018-12-10T14:09:13.587Z,1.30
2018-12-10T14:11:17.461Z,1.90
2018-12-10T14:13:21.401Z,2.05
2018-12-10T14:15:24.996Z,1.70
2018-12-10T14:17:28.589Z,1.35
2018-12-10T14:19:32.305Z,1.63
2018-12-10T14:21:35.861Z,1.60
2018-12-10T14:23:39.762Z,2.00
2018-12-10T14:25:42.977Z,1.33
2018-12-10T14:27:46.533Z,2.40
2018-12-10T14:29:49.998Z,1.50
2018-12-10T14:31:54.239Z,1.30
2018-12-10T14:34:02.085Z,1.55
2018-12-10T14:36:05.717Z,1.30
2018-12-10T14:38:09.351Z,1.60
2018-12-10T14:40:13.974Z,1.50
2018-12-10T14:42:24.431Z,1.70
2018-12-10T14:44:28.381Z,1.60
2018-12-10T14:46:32.287Z,1.30
2018-12-10T14:48:35.494Z,1.63
2018-12-10T14:50:39.061Z,1.87
2018-12-10T14:52:42.525Z,1.85
2018-12-10T14:54:46.061Z,1.10
2018-12-10T14:56:49.548Z,1.60
2018-12-10T14:58:53.466Z,1.30
2018-12-10T15:00:57.676Z,1.40
2018-12-10T15:03:01.159Z,1.32
2018-12-10T15:05:06.578Z,1.40
2018-12-10T15:07:10.356Z,1.60
2018-12-10T15:09:13.899Z,1.20
2018-12-10T15:11:17.411Z,1.77
2018-12-10T15:13:20.894Z,2.10
2018-12-10T15:15:24.414Z,1.80
2018-12-10T15:17:28.302Z,1.50
2018-12-10T15:19:31.802Z,1.32
2018-12-10T15:21:35.334Z,1.55
2018-12-10T15:23:38.932Z,1.30
2018-12-10T15:25:42.294Z,1.37
2018-12-10T15:27:46.205Z,1.02
2018-12-10T15:29:49.439Z,1.30
2018-12-10T15:31:53.381Z,1.35
2018-12-10T15:33:57.094Z,1.20
2018-12-10T15:36:00.644Z,1.30
2018-12-10T15:38:04.586Z,1.50
2018-12-10T15:40:09.239Z,1.27
2018-12-10T15:42:13.409Z,1.30
2018-12-10T15:44:17.294Z,1.10
2018-12-10T15:46:20.810Z,1.60
2018-12-10T15:48:24.310Z,1.20
2018-12-10T15:50:27.834Z,1.15
2018-12-10T15:52:32.033Z,1.20
2018-12-10T15:54:35.609Z,1.30
2018-12-10T15:56:39.328Z,1.27
2018-12-10T15:58:43.367Z,1.80
2018-12-10T16:00:47.863Z,1.80
2018-12-10T16:02:51.677Z,1.92
2018-12-10T16:04:55.690Z,2.17
2018-12-10T16:06:59.670Z,2.08
2018-12-10T16:09:05.734Z,1.50
2018-12-10T16:11:09.530Z,2.00
2018-12-10T16:13:13.055Z,2.00
2018-12-10T16:15:16.362Z,1.80
2018-12-10T16:17:20.794Z,2.40
2018-12-10T16:19:24.754Z,2.08
2018-12-10T16:21:28.674Z,2.33
2018-12-10T16:23:32.754Z,2.17
2018-12-10T16:25:36.254Z,2.17
2018-12-10T16:27:40.262Z,2.20
2018-12-10T16:29:43.621Z,2.70
2018-12-10T16:31:47.176Z,2.50
2018-12-10T16:33:50.755Z,2.90
2018-12-10T16:35:55.767Z,2.47
2018-12-10T16:37:59.790Z,2.60
2018-12-10T16:40:04.747Z,2.30
2018-12-10T16:42:08.446Z,2.47
2018-12-10T16:44:11.946Z,2.60
2018-12-10T16:46:15.583Z,1.90
2018-12-10T16:48:19.298Z,2.67
2018-12-10T16:50:22.835Z,2.00
2018-12-10T16:52:26.438Z,2.20
2018-12-10T16:54:30.084Z,2.40
2018-12-10T16:56:33.779Z,2.30
2018-12-10T16:58:37.275Z,2.02
2018-12-10T17:00:41.230Z,1.70
2018-12-10T17:02:45.118Z,2.10
2018-12-10T17:04:48.622Z,1.87
2018-12-10T17:06:52.126Z,2.00
2018-12-10T17:08:55.645Z,2.10
2018-12-10T17:10:58.854Z,2.10
2018-12-10T17:13:02.820Z,2.30
2018-12-10T17:15:07.910Z,2.00
2018-12-10T17:17:11.443Z,1.80
2018-12-10T17:19:15.349Z,2.08
2018-12-10T17:21:18.857Z,1.90
2018-12-10T17:23:22.171Z,2.37
2018-12-10T17:25:26.498Z,3.17
2018-12-10T17:27:30.426Z,2.00
2018-12-10T17:29:34.254Z,2.00
2018-12-10T17:31:37.509Z,2.03
2018-12-10T17:33:41.634Z,1.57
2018-12-10T17:35:45.565Z,1.80
2018-12-10T17:37:49.135Z,2.22
2018-12-10T17:39:52.624Z,2.00
2018-12-10T17:41:55.822Z,2.20
2018-12-10T17:44:01.344Z,2.05
2018-12-10T17:46:05.286Z,2.50
2018-12-10T17:48:10.274Z,2.85
2018-12-10T17:50:14.794Z,2.00
2018-12-10T17:52:18.825Z,2.80
2018-12-10T17:54:22.475Z,2.20
2018-12-10T17:56:26.729Z,2.30
2018-12-10T17:58:30.676Z,2.10
2018-12-10T18:00:34.963Z,1.60
2018-12-10T18:02:38.898Z,1.65
2018-12-10T18:04:42.382Z,2.90
2018-12-10T18:06:46.036Z,2.83
2018-12-10T18:08:49.626Z,2.72
2018-12-10T18:10:53.012Z,2.70
2018-12-10T18:12:56.562Z,2.60
2018-12-10T18:15:00.515Z,2.33
2018-12-10T18:17:04.484Z,2.30
2018-12-10T18:19:08.568Z,2.83
2018-12-10T18:21:12.407Z,2.60
2018-12-10T18:23:15.933Z,2.50
2018-12-10T18:25:19.430Z,3.10
2018-12-10T18:27:23.131Z,3.12
2018-12-10T18:29:26.659Z,3.27
2018-12-10T18:31:30.173Z,2.98
2018-12-10T18:33:34.659Z,1.87
2018-12-10T18:35:38.306Z,3.30
2018-12-10T18:37:41.918Z,3.42
2018-12-10T18:39:45.520Z,3.15
2018-12-10T18:41:49.464Z,2.85
2018-12-10T18:43:53.546Z,2.75
2018-12-10T18:45:57.471Z,3.30
2018-12-10T18:48:00.967Z,2.80
2018-12-10T18:50:05.327Z,2.50
2018-12-10T18:52:09.446Z,2.60
2018-12-10T18:54:12.663Z,2.77
2018-12-10T18:56:16.580Z,2.30
2018-12-10T18:58:20.002Z,1.93
2018-12-10T19:00:23.498Z,2.10
2018-12-10T19:02:27.512Z,2.87
2018-12-10T19:04:31.052Z,2.72
2018-12-10T19:06:34.898Z,2.35
2018-12-10T19:08:38.138Z,2.70
2018-12-10T19:10:41.367Z,2.40
2018-12-10T19:12:45.303Z,2.70
2018-12-10T19:14:49.535Z,2.70
2018-12-10T19:16:53.759Z,2.37
2018-12-10T19:18:57.325Z,2.30
2018-12-10T19:21:00.515Z,2.00
2018-12-10T19:23:04.223Z,2.55
2018-12-10T19:25:07.719Z,2.42
2018-12-10T19:27:11.006Z,2.30
2018-12-10T19:29:15.392Z,1.72
2018-12-10T19:31:19.330Z,2.30
2018-12-10T19:33:22.890Z,2.62
2018-12-10T19:35:27.158Z,2.02
2018-12-10T19:37:31.450Z,2.15
2018-12-10T19:39:35.062Z,2.50
2018-12-10T19:41:38.670Z,2.62
2018-12-10T19:43:42.221Z,2.02
2018-12-10T19:45:45.657Z,2.30
2018-12-10T19:47:49.459Z,2.40
2018-12-10T19:49:52.930Z,2.35
2018-12-10T19:51:56.142Z,2.33
2018-12-10T19:54:00.360Z,2.60
2018-12-10T19:56:04.536Z,2.65
2018-12-10T19:58:08.521Z,2.20
2018-12-10T20:00:12.853Z,1.90
2018-12-10T20:02:17.165Z,2.27
2018-12-10T20:04:20.638Z,2.02
2018-12-10T20:06:29.562Z,2.97
2018-12-10T20:08:33.778Z,2.80
2018-12-10T20:10:37.718Z,3.03
2018-12-10T20:12:41.214Z,3.03
2018-12-10T20:14:44.827Z,2.60
2018-12-10T20:16:48.684Z,3.27
2018-12-10T20:18:52.520Z,2.15
2018-12-10T20:20:56.462Z,2.70
2018-12-10T20:23:00.242Z,2.47
2018-12-10T20:25:04.278Z,2.58
2018-12-10T20:27:07.515Z,2.20
2018-12-10T20:29:11.368Z,2.95
2018-12-10T20:31:15.407Z,2.72
2018-12-10T20:33:18.942Z,3.08
2018-12-10T20:35:23.155Z,2.80
2018-12-10T20:37:27.346Z,2.65
2018-12-10T20:39:30.867Z,2.62
2018-12-10T20:41:34.872Z,3.10
2018-12-10T20:43:38.490Z,2.72
2018-12-10T20:45:41.988Z,2.50
2018-12-10T20:47:45.890Z,2.70
2018-12-10T20:49:49.391Z,2.20
2018-12-10T20:51:52.638Z,3.17
2018-12-10T20:53:56.352Z,2.20
2018-12-10T20:55:59.875Z,2.70
2018-12-10T20:58:03.577Z,2.70
2018-12-10T21:00:07.470Z,2.25
2018-12-10T21:02:11.022Z,3.10
2018-12-10T21:04:14.607Z,2.65
2018-12-10T21:06:23.786Z,2.67
2018-12-10T21:08:27.474Z,2.20
2018-12-10T21:10:30.768Z,2.97
2018-12-10T21:12:34.706Z,2.12
2018-12-10T21:14:38.639Z,2.42
2018-12-10T21:16:42.786Z,2.30
2018-12-10T21:18:46.276Z,2.80
2018-12-10T21:20:49.765Z,2.60
2018-12-10T21:22:53.477Z,3.20
2018-12-10T21:24:56.991Z,3.58
2018-12-10T21:27:00.249Z,3.05
2018-12-10T21:29:04.138Z,2.87
2018-12-10T21:31:08.053Z,2.90
2018-12-10T21:33:12.722Z,2.75
2018-12-10T21:35:16.262Z,3.02
2018-12-10T21:37:19.838Z,2.67
2018-12-10T21:39:23.764Z,3.60
2018-12-10T21:41:27.602Z,3.50
2018-12-10T21:43:31.121Z,3.10
2018-12-10T21:45:34.606Z,2.67
2018-12-10T21:47:38.363Z,3.40
2018-12-10T21:49:41.950Z,3.27
2018-12-10T21:51:45.209Z,3.08
2018-12-10T21:53:48.407Z,3.27
2018-12-10T21:55:52.011Z,3.25
2018-12-10T21:57:55.530Z,2.50
2018-12-10T21:59:59.126Z,3.00
2018-12-10T22:02:02.982Z,3.60
2018-12-10T22:04:06.503Z,3.40
2018-12-10T22:06:11.044Z,3.12
2018-12-10T22:08:14.954Z,3.20
2018-12-10T22:10:18.862Z,2.80
2018-12-10T22:12:22.362Z,2.87
2018-12-10T22:14:26.079Z,3.42
2018-12-10T22:16:29.887Z,2.90
2018-12-10T22:18:33.114Z,2.60
2018-12-10T22:20:36.519Z,3.47
2018-12-10T22:22:40.018Z,3.60
2018-12-10T22:24:43.556Z,3.17
2018-12-10T22:26:47.066Z,2.77
2018-12-10T22:28:50.543Z,3.47
2018-12-10T22:30:54.351Z,3.70
2018-12-10T22:32:57.882Z,3.40
2018-12-10T22:35:01.378Z,4.50
2018-12-10T22:37:05.263Z,3.10
2018-12-10T22:39:09.169Z,3.40
2018-12-10T22:41:12.690Z,3.37
2018-12-10T22:43:16.178Z,3.10
2018-12-10T22:45:19.984Z,2.90
2018-12-10T22:47:24.397Z,2.60
2018-12-10T22:49:27.605Z,3.37
2018-12-10T22:51:31.133Z,3.08
2018-12-10T22:53:34.678Z,3.40
2018-12-10T22:55:38.491Z,3.20
2018-12-10T22:57:41.992Z,3.60
2018-12-10T22:59:45.650Z,3.27
2018-12-10T23:01:49.166Z,2.70
2018-12-10T23:03:52.665Z,3.22
2018-12-10T23:05:56.627Z,3.08
2018-12-10T23:08:00.390Z,3.08
2018-12-10T23:10:05.569Z,3.80
2018-12-10T23:12:09.334Z,3.42
2018-12-10T23:14:12.578Z,3.72
2018-12-10T23:16:16.422Z,2.60
2018-12-10T23:18:19.945Z,4.27
2018-12-10T23:20:23.487Z,3.10
2018-12-10T23:22:28.048Z,3.90
2018-12-10T23:24:31.578Z,4.10
2018-12-10T23:26:35.022Z,3.60
2018-12-10T23:28:38.269Z,4.50
2018-12-10T23:30:41.980Z,3.37
2018-12-10T23:32:45.586Z,3.17
2018-12-10T23:34:49.159Z,3.80
2018-12-10T23:36:52.702Z,3.17
2018-12-10T23:38:56.569Z,3.30
2018-12-10T23:40:59.787Z,3.00
2018-12-10T23:43:09.124Z,3.27
2018-12-10T23:45:13.126Z,3.97
2018-12-10T23:47:16.631Z,3.30
2018-12-10T23:49:20.122Z,3.85
2018-12-10T23:51:23.602Z,3.75
2018-12-10T23:53:27.152Z,4.30
2018-12-10T23:55:30.370Z,3.07
2018-12-10T23:57:33.868Z,3.20
2018-12-10T23:59:37.391Z,3.27
